createdAt,value
2023-10-26T00:01:42.111Z,11.06
2023-10-26T00:04:09.545Z,10.96
2023-10-26T00:06:37.034Z,10.88
2023-10-26T00:09:04.613Z,10.80
2023-10-26T00:11:32.019Z,10.74
2023-10-26T00:13:59.366Z,10.70
2023-10-26T00:16:26.771Z,10.67
2023-10-26T00:18:54.136Z,10.65
2023-10-26T00:21:22.255Z,10.62
2023-10-26T00:23:49.775Z,10.58
2023-10-26T00:26:17.222Z,10.55
2023-10-26T00:28:46.434Z,10.50
2023-10-26T00:31:13.752Z,10.48
2023-10-26T00:33:41.130Z,10.45
2023-10-26T00:36:09.172Z,10.41
2023-10-26T00:38:36.803Z,10.38
2023-10-26T00:41:05.240Z,10.34
2023-10-26T00:43:33.527Z,10.30
2023-10-26T00:46:01.029Z,10.25
2023-10-26T00:48:29.013Z,10.22
2023-10-26T00:50:56.492Z,10.19
2023-10-26T00:53:23.861Z,10.14
2023-10-26T00:55:52.414Z,10.05
2023-10-26T00:58:20.017Z,9.97
2023-10-26T01:00:47.515Z,9.94
2023-10-26T01:03:15.520Z,9.93
2023-10-26T01:05:43.288Z,9.93
2023-10-26T01:08:10.671Z,9.94
2023-10-26T01:10:38.002Z,9.94
2023-10-26T01:13:05.857Z,9.93
2023-10-26T01:15:33.173Z,9.93
2023-10-26T01:18:00.746Z,9.94
2023-10-26T01:20:29.311Z,9.94
2023-10-26T01:22:56.692Z,9.96
2023-10-26T01:25:24.056Z,9.96
2023-10-26T01:27:51.757Z,9.98
2023-10-26T01:30:19.144Z,9.99
2023-10-26T01:32:46.607Z,10.00
2023-10-26T01:35:14.326Z,9.97
2023-10-26T01:37:41.850Z,9.94
2023-10-26T01:40:09.941Z,9.92
2023-10-26T01:42:38.114Z,9.91
2023-10-26T01:45:06.268Z,9.91
2023-10-26T01:47:33.648Z,9.92
2023-10-26T01:50:01.323Z,9.91
2023-10-26T01:52:28.667Z,9.90
2023-10-26T01:54:56.234Z,9.89
2023-10-26T01:57:24.307Z,9.86
2023-10-26T01:59:56.159Z,9.85
2023-10-26T02:02:23.469Z,9.85
2023-10-26T02:04:51.154Z,9.84
2023-10-26T02:07:18.461Z,9.82
2023-10-26T02:09:45.797Z,9.80
2023-10-26T02:12:13.248Z,9.74
2023-10-26T02:14:40.648Z,9.64
2023-10-26T02:17:08.008Z,9.56
2023-10-26T02:19:35.433Z,9.53
2023-10-26T02:22:02.808Z,9.55
2023-10-26T02:24:30.206Z,9.58
2023-10-26T02:26:57.673Z,9.64
2023-10-26T02:29:24.959Z,9.67
2023-10-26T02:31:52.359Z,9.71
2023-10-26T02:34:20.145Z,9.70
2023-10-26T02:36:47.458Z,9.66
2023-10-26T02:39:15.250Z,9.66
2023-10-26T02:41:42.692Z,9.64
2023-10-26T02:44:09.961Z,9.62
2023-10-26T02:46:37.325Z,9.63
2023-10-26T02:49:04.731Z,9.67
2023-10-26T02:51:32.079Z,9.72
2023-10-26T02:53:59.804Z,9.77
2023-10-26T02:56:27.202Z,9.77
2023-10-26T02:58:54.537Z,9.77
2023-10-26T03:01:21.890Z,9.76
2023-10-26T03:03:49.278Z,9.74
2023-10-26T03:06:17.141Z,9.76
2023-10-26T03:08:44.585Z,9.80
2023-10-26T03:11:11.901Z,9.82
2023-10-26T03:13:39.185Z,9.80
2023-10-26T03:16:07.677Z,9.81
2023-10-26T03:18:35.830Z,9.82
2023-10-26T03:21:03.266Z,9.83
2023-10-26T03:23:31.102Z,9.86
2023-10-26T03:25:58.811Z,9.89
2023-10-26T03:28:26.088Z,9.92
2023-10-26T03:30:53.418Z,9.97
2023-10-26T03:33:20.925Z,10.02
2023-10-26T03:35:48.338Z,10.08
2023-10-26T03:38:15.709Z,10.12
2023-10-26T03:40:43.047Z,10.17
2023-10-26T03:43:11.084Z,10.21
2023-10-26T03:45:38.480Z,10.23
2023-10-26T03:48:06.297Z,10.25
2023-10-26T03:50:33.732Z,10.28
2023-10-26T03:53:01.115Z,10.30
2023-10-26T03:55:28.461Z,10.33
2023-10-26T03:57:55.880Z,10.35
2023-10-26T04:00:23.305Z,10.36
2023-10-26T04:02:50.657Z,10.36
2023-10-26T04:05:18.223Z,10.37
2023-10-26T04:07:46.064Z,10.38
2023-10-26T04:10:13.506Z,10.38
2023-10-26T04:12:40.870Z,10.35
2023-10-26T04:15:08.942Z,10.30
2023-10-26T04:17:36.434Z,10.26
2023-10-26T04:20:04.553Z,10.21
2023-10-26T04:22:32.662Z,10.15
2023-10-26T04:25:00.005Z,10.10
2023-10-26T04:27:27.346Z,10.04
2023-10-26T04:29:54.734Z,9.99
2023-10-26T04:32:22.488Z,9.94
2023-10-26T04:34:49.790Z,9.91
2023-10-26T04:37:17.179Z,9.91
2023-10-26T04:39:47.409Z,9.91
2023-10-26T04:42:14.789Z,9.95
2023-10-26T04:44:42.830Z,9.99
2023-10-26T04:47:11.311Z,10.03
2023-10-26T04:49:38.911Z,10.07
2023-10-26T04:52:06.535Z,10.10
2023-10-26T04:54:33.903Z,10.14
2023-10-26T04:57:01.350Z,10.18
2023-10-26T04:59:28.813Z,10.21
2023-10-26T05:01:56.159Z,10.25
2023-10-26T05:04:23.472Z,10.28
2023-10-26T05:06:52.210Z,10.31
2023-10-26T05:09:19.759Z,10.34
2023-10-26T05:11:47.407Z,10.37
2023-10-26T05:14:14.813Z,10.38
2023-10-26T05:16:42.977Z,10.39
2023-10-26T05:19:10.442Z,10.39
2023-10-26T05:21:37.902Z,10.39
2023-10-26T05:24:05.920Z,10.41
2023-10-26T05:26:33.357Z,10.43
2023-10-26T05:29:03.606Z,10.45
2023-10-26T05:31:30.947Z,10.48
2023-10-26T05:33:58.500Z,10.50
2023-10-26T05:36:25.915Z,10.52
2023-10-26T05:38:53.308Z,10.53
2023-10-26T05:41:20.680Z,10.54
2023-10-26T05:43:48.118Z,10.56
2023-10-26T05:46:15.505Z,10.58
2023-10-26T05:48:42.943Z,10.60
2023-10-26T05:51:10.358Z,10.58
2023-10-26T05:53:37.727Z,10.58
2023-10-26T05:56:05.402Z,10.58
2023-10-26T05:58:32.808Z,10.60
2023-10-26T06:01:01.153Z,10.61
2023-10-26T06:03:28.707Z,10.61
2023-10-26T06:06:00.857Z,10.59
2023-10-26T06:08:28.340Z,10.56
2023-10-26T06:10:55.871Z,10.55
2023-10-26T06:13:23.238Z,10.59
2023-10-26T06:15:50.547Z,10.64
2023-10-26T06:18:18.016Z,10.69
2023-10-26T06:21:00.252Z,10.75
2023-10-26T06:23:30.657Z,10.81
2023-10-26T06:25:59.492Z,10.86
2023-10-26T06:28:27.377Z,10.91
2023-10-26T06:30:55.639Z,10.96
2023-10-26T06:33:23.214Z,11.00
2023-10-26T06:35:50.655Z,11.05
2023-10-26T06:38:18.015Z,11.10
2023-10-26T06:40:46.580Z,11.17
2023-10-26T06:43:13.902Z,11.22
2023-10-26T06:45:41.379Z,11.26
2023-10-26T06:48:09.482Z,11.32
2023-10-26T06:50:36.848Z,11.40
2023-10-26T06:53:04.250Z,11.48
2023-10-26T06:55:34.905Z,11.56
2023-10-26T06:58:02.212Z,11.64
2023-10-26T07:00:30.042Z,11.73
2023-10-26T07:02:57.767Z,11.82
2023-10-26T07:05:25.292Z,11.91
2023-10-26T07:07:52.682Z,12.00
2023-10-26T07:10:21.161Z,12.09
2023-10-26T07:12:48.695Z,12.17
2023-10-26T07:15:16.260Z,12.26
2023-10-26T07:17:43.656Z,12.32
2023-10-26T07:20:14.216Z,12.38
2023-10-26T07:22:43.810Z,12.46
2023-10-26T07:25:11.248Z,12.50
2023-10-26T07:27:38.724Z,12.55
2023-10-26T07:30:07.500Z,12.60
2023-10-26T07:32:35.202Z,12.63
2023-10-26T07:35:02.855Z,12.67
2023-10-26T07:37:31.103Z,12.72
2023-10-26T07:40:28.972Z,12.79
2023-10-26T07:42:45.892Z,12.85
2023-10-26T07:45:13.699Z,12.87
2023-10-26T07:47:41.238Z,12.89
2023-10-26T07:50:09.644Z,12.92
2023-10-26T07:52:37.089Z,12.96
2023-10-26T07:55:05.138Z,13.03
2023-10-26T07:57:32.536Z,13.10
2023-10-26T07:59:59.858Z,13.17
2023-10-26T08:02:27.363Z,13.23
2023-10-26T08:04:55.235Z,13.28
2023-10-26T08:07:22.602Z,13.32
2023-10-26T08:09:49.945Z,13.36
2023-10-26T08:12:17.863Z,13.41
2023-10-26T08:16:11.629Z,13.47
2023-10-26T08:17:36.757Z,13.51
2023-10-26T08:20:08.289Z,13.54
2023-10-26T08:22:36.410Z,13.61
2023-10-26T08:25:04.977Z,13.69
2023-10-26T08:27:37.289Z,13.79
2023-10-26T08:30:05.960Z,13.89
2023-10-26T08:32:33.919Z,13.96
2023-10-26T08:35:01.726Z,13.98
2023-10-26T08:37:29.495Z,13.99
2023-10-26T08:39:57.495Z,13.99
2023-10-26T08:42:24.915Z,14.01
2023-10-26T08:44:52.418Z,14.06
2023-10-26T08:47:22.885Z,14.12
2023-10-26T08:50:08.090Z,14.16
2023-10-26T08:52:42.072Z,14.21
2023-10-26T08:55:09.585Z,14.28
2023-10-26T08:58:06.377Z,14.36
2023-10-26T09:00:34.009Z,14.44
2023-10-26T09:03:04.107Z,14.51
2023-10-26T09:05:32.984Z,14.61
2023-10-26T09:08:16.500Z,14.70
2023-10-26T09:10:43.916Z,14.76
2023-10-26T09:13:12.318Z,14.80
2023-10-26T09:15:51.690Z,14.86
2023-10-26T09:18:19.319Z,14.93
2023-10-26T09:21:07.326Z,15.01
2023-10-26T09:23:36.078Z,15.10
2023-10-26T09:26:09.296Z,15.19
2023-10-26T09:28:53.397Z,15.34
2023-10-26T09:31:21.663Z,15.46
2023-10-26T09:33:49.481Z,15.58
2023-10-26T09:36:18.144Z,15.67
2023-10-26T09:38:45.541Z,15.72
2023-10-26T09:41:13.991Z,15.80
2023-10-26T09:43:44.353Z,15.93
2023-10-26T09:46:12.113Z,16.07
2023-10-26T09:48:39.852Z,16.18
2023-10-26T09:51:07.543Z,16.26
2023-10-26T09:53:36.965Z,16.33
2023-10-26T09:56:05.250Z,16.40
2023-10-26T09:58:42.079Z,16.43
2023-10-26T10:01:35.361Z,16.46
2023-10-26T10:04:03.865Z,16.50
2023-10-26T10:06:54.268Z,16.50
2023-10-26T10:09:30.070Z,16.49
2023-10-26T10:12:07.289Z,16.46
2023-10-26T10:14:52.676Z,16.43
2023-10-26T10:17:21.625Z,16.39
2023-10-26T10:20:09.345Z,16.36
2023-10-26T10:22:39.678Z,16.35
2023-10-26T10:25:10.674Z,16.33
2023-10-26T10:27:38.444Z,16.28
2023-10-26T10:30:09.247Z,16.21
2023-10-26T10:32:48.778Z,16.14
2023-10-26T10:35:22.500Z,16.11
2023-10-26T10:38:18.568Z,16.07
2023-10-26T10:40:55.152Z,16.08
2023-10-26T10:43:35.549Z,16.13
2023-10-26T10:46:22.954Z,16.23
2023-10-26T10:49:07.809Z,16.35
2023-10-26T10:51:42.416Z,16.43
2023-10-26T10:54:26.986Z,16.56
2023-10-26T10:56:58.930Z,16.72
2023-10-26T10:59:31.448Z,16.87
2023-10-26T11:02:10.013Z,16.99
2023-10-26T11:05:05.343Z,17.10
2023-10-26T11:07:36.941Z,17.17
2023-10-26T11:10:05.059Z,17.24
2023-10-26T11:12:32.545Z,17.32
2023-10-26T11:14:59.987Z,17.37
2023-10-26T11:17:30.099Z,17.41
2023-10-26T11:19:57.560Z,17.45
2023-10-26T11:22:25.140Z,17.49
2023-10-26T11:24:52.581Z,17.50
2023-10-26T11:27:22.132Z,17.51
2023-10-26T11:30:06.713Z,17.53
2023-10-26T11:32:35.278Z,17.57
2023-10-26T11:35:09.498Z,17.60
2023-10-26T11:37:37.832Z,17.64
2023-10-26T11:40:06.453Z,17.70
2023-10-26T11:42:53.854Z,17.78
2023-10-26T11:45:22.584Z,17.86
2023-10-26T11:47:56.047Z,17.89
2023-10-26T11:50:36.209Z,17.91
2023-10-26T11:53:05.092Z,17.92
2023-10-26T11:57:12.476Z,17.97
2023-10-26T11:59:39.846Z,17.97
2023-10-26T12:02:07.204Z,18.00
2023-10-26T12:04:34.550Z,18.02
2023-10-26T12:07:01.988Z,18.00
2023-10-26T12:09:30.289Z,17.98
2023-10-26T12:11:57.659Z,17.95
2023-10-26T12:14:25.282Z,17.90
2023-10-26T12:16:54.012Z,17.81
2023-10-26T12:19:21.699Z,17.75
2023-10-26T12:21:49.058Z,17.71
2023-10-26T12:24:16.745Z,17.67
2023-10-26T12:26:44.068Z,17.63
2023-10-26T12:29:11.406Z,17.63
2023-10-26T12:31:38.898Z,17.63
2023-10-26T12:34:06.881Z,17.63
2023-10-26T12:36:34.389Z,17.63
2023-10-26T12:39:04.250Z,17.64
2023-10-26T12:41:31.565Z,17.63
2023-10-26T12:43:58.978Z,17.63
2023-10-26T12:46:26.343Z,17.63
2023-10-26T12:48:53.770Z,17.61
2023-10-26T12:51:21.221Z,17.59
2023-10-26T12:53:48.674Z,17.56
2023-10-26T12:56:16.033Z,17.51
2023-10-26T12:58:43.528Z,17.46
2023-10-26T13:01:10.911Z,17.42
2023-10-26T13:03:38.390Z,17.37
2023-10-26T13:06:06.075Z,17.32
2023-10-26T13:08:33.484Z,17.26
2023-10-26T13:11:00.819Z,17.20
2023-10-26T13:13:28.161Z,17.13
2023-10-26T13:15:55.905Z,17.07
2023-10-26T13:18:23.255Z,17.01
2023-10-26T13:20:50.999Z,16.95
2023-10-26T13:23:19.095Z,16.89
2023-10-26T13:25:46.502Z,16.82
2023-10-26T13:28:14.052Z,16.76
2023-10-26T13:30:41.757Z,16.70
2023-10-26T13:33:10.838Z,16.66
2023-10-26T13:35:38.341Z,16.62
2023-10-26T13:38:07.934Z,16.58
2023-10-26T13:40:35.289Z,16.53
2023-10-26T13:43:02.685Z,16.47
2023-10-26T13:45:30.091Z,16.40
2023-10-26T13:47:59.433Z,16.33
2023-10-26T13:50:27.555Z,16.25
2023-10-26T13:52:54.986Z,16.16
2023-10-26T13:55:22.367Z,16.09
2023-10-26T13:57:49.760Z,16.02
2023-10-26T14:00:18.017Z,15.96
2023-10-26T14:02:45.761Z,15.89
2023-10-26T14:05:29.537Z,15.85
2023-10-26T14:07:58.423Z,15.80
2023-10-26T14:10:26.636Z,15.74
2023-10-26T14:12:54.099Z,15.69
2023-10-26T14:15:21.699Z,15.63
2023-10-26T14:17:49.102Z,15.60
2023-10-26T14:20:16.726Z,15.57
2023-10-26T14:22:44.169Z,15.55
2023-10-26T14:25:11.625Z,15.53
2023-10-26T14:27:40.331Z,15.51
2023-10-26T14:30:09.726Z,15.50
2023-10-26T14:32:38.505Z,15.50
2023-10-26T14:35:06.678Z,15.49
2023-10-26T14:37:34.074Z,15.49
2023-10-26T14:40:01.657Z,15.47
2023-10-26T14:42:29.287Z,15.45
2023-10-26T14:44:57.731Z,15.41
2023-10-26T14:47:25.085Z,15.38
2023-10-26T14:49:52.384Z,15.37
2023-10-26T14:52:19.796Z,15.35
2023-10-26T14:54:47.224Z,15.32
2023-10-26T14:57:14.558Z,15.31
2023-10-26T14:59:41.987Z,15.30
2023-10-26T15:02:09.416Z,15.28
2023-10-26T15:04:36.767Z,15.25
2023-10-26T15:07:04.547Z,15.23
2023-10-26T15:10:20.002Z,15.20
2023-10-26T15:12:21.668Z,15.18
2023-10-26T15:14:49.051Z,15.15
2023-10-26T15:17:16.506Z,15.12
2023-10-26T15:19:43.909Z,15.09
2023-10-26T15:22:11.349Z,15.05
2023-10-26T15:24:38.953Z,15.00
2023-10-26T15:27:10.536Z,14.96
2023-10-26T15:29:39.605Z,14.91
2023-10-26T15:32:07.264Z,14.87
2023-10-26T15:34:34.703Z,14.83
2023-10-26T15:37:02.365Z,14.81
2023-10-26T15:39:34.158Z,14.77
2023-10-26T15:42:01.608Z,14.75
2023-10-26T15:44:29.717Z,14.73
2023-10-26T15:46:57.031Z,14.71
2023-10-26T15:49:33.007Z,14.70
2023-10-26T15:52:04.480Z,14.68
2023-10-26T15:54:32.082Z,14.67
2023-10-26T15:56:59.622Z,14.64
2023-10-26T15:59:26.955Z,14.61
2023-10-26T16:01:54.442Z,14.60
2023-10-26T16:04:22.085Z,14.58
2023-10-26T16:06:51.300Z,14.56
2023-10-26T16:09:18.855Z,14.54
2023-10-26T16:11:46.424Z,14.52
2023-10-26T16:14:14.357Z,14.50
2023-10-26T16:16:41.890Z,14.47
2023-10-26T16:19:11.004Z,14.43
2023-10-26T16:21:38.520Z,14.39
2023-10-26T16:24:06.819Z,14.35
2023-10-26T16:26:34.132Z,14.32
2023-10-26T16:29:01.860Z,14.28
2023-10-26T16:31:29.426Z,14.25
2023-10-26T16:33:56.948Z,14.22
2023-10-26T16:36:25.569Z,14.17
2023-10-26T16:38:53.316Z,14.13
2023-10-26T16:41:20.717Z,14.08
2023-10-26T16:43:48.188Z,14.04
2023-10-26T16:46:15.642Z,14.01
2023-10-26T16:48:44.124Z,13.97
2023-10-26T16:51:11.601Z,13.94
2023-10-26T16:53:41.607Z,13.91
2023-10-26T16:56:09.605Z,13.87
2023-10-26T16:58:37.145Z,13.85
2023-10-26T17:01:07.232Z,13.82
2023-10-26T17:03:35.008Z,13.79
2023-10-26T17:06:03.310Z,13.76
2023-10-26T17:08:32.407Z,13.74
2023-10-26T17:10:59.843Z,13.72
2023-10-26T17:13:27.222Z,13.69
2023-10-26T17:15:54.924Z,13.67
2023-10-26T17:18:22.743Z,13.63
2023-10-26T17:20:50.272Z,13.59
2023-10-26T17:23:17.808Z,13.57
2023-10-26T17:25:45.399Z,13.53
2023-10-26T17:28:12.895Z,13.48
2023-10-26T17:30:41.784Z,13.39
2023-10-26T17:33:12.685Z,13.30
2023-10-26T17:35:44.461Z,13.23
2023-10-26T17:38:11.921Z,13.18
2023-10-26T17:40:39.279Z,13.15
2023-10-26T17:43:07.333Z,13.13
2023-10-26T17:45:35.005Z,13.08
2023-10-26T17:48:02.486Z,13.00
2023-10-26T17:50:29.891Z,12.92
2023-10-26T17:52:57.592Z,12.84
2023-10-26T17:55:25.209Z,12.79
2023-10-26T17:57:52.712Z,12.72
2023-10-26T18:00:20.122Z,12.66
2023-10-26T18:02:47.635Z,12.59
2023-10-26T18:05:15.481Z,12.53
2023-10-26T18:07:43.142Z,12.49
2023-10-26T18:10:10.887Z,12.43
2023-10-26T18:12:38.762Z,12.35
2023-10-26T18:15:07.570Z,12.25
2023-10-26T18:17:35.129Z,12.18
2023-10-26T18:20:02.913Z,12.12
2023-10-26T18:22:30.494Z,12.05
2023-10-26T18:24:58.187Z,11.97
2023-10-26T18:27:26.078Z,11.87
2023-10-26T18:29:53.452Z,11.79
2023-10-26T18:32:21.091Z,11.72
2023-10-26T18:34:48.646Z,11.67
2023-10-26T18:37:16.362Z,11.62
2023-10-26T18:39:44.372Z,11.58
2023-10-26T18:42:12.310Z,11.54
2023-10-26T18:44:39.808Z,11.50
2023-10-26T18:47:07.453Z,11.45
2023-10-26T18:49:35.881Z,11.42
2023-10-26T18:52:03.339Z,11.38
2023-10-26T18:54:30.787Z,11.34
2023-10-26T18:56:58.303Z,11.26
2023-10-26T18:59:25.863Z,11.17
2023-10-26T19:01:53.687Z,11.08
2023-10-26T19:04:21.304Z,11.01
2023-10-26T19:06:49.801Z,10.96
2023-10-26T19:09:17.351Z,10.93
2023-10-26T19:11:44.932Z,10.90
2023-10-26T19:14:12.766Z,10.88
2023-10-26T19:16:40.595Z,10.88
2023-10-26T19:19:08.484Z,10.86
2023-10-26T19:21:36.165Z,10.85
2023-10-26T19:24:04.917Z,10.84
2023-10-26T19:26:32.533Z,10.85
2023-10-26T19:28:59.995Z,10.85
2023-10-26T19:31:27.446Z,10.83
2023-10-26T19:33:55.041Z,10.81
2023-10-26T19:36:22.800Z,10.79
2023-10-26T19:38:50.136Z,10.76
2023-10-26T19:41:17.670Z,10.73
2023-10-26T19:43:45.423Z,10.68
2023-10-26T19:46:13.746Z,10.63
2023-10-26T19:48:41.808Z,10.58
2023-10-26T19:51:09.266Z,10.53
2023-10-26T19:53:37.035Z,10.48
2023-10-26T19:56:05.793Z,10.43
2023-10-26T19:58:33.250Z,10.40
2023-10-26T20:01:00.706Z,10.38
2023-10-26T20:03:28.219Z,10.35
2023-10-26T20:05:55.518Z,10.32
2023-10-26T20:08:22.845Z,10.25
2023-10-26T20:10:50.212Z,10.18
2023-10-26T20:13:17.528Z,10.12
2023-10-26T20:15:45.076Z,10.08
2023-10-26T20:18:12.532Z,10.04
2023-10-26T20:20:39.840Z,10.01
2023-10-26T20:23:07.155Z,9.96
2023-10-26T20:25:34.523Z,9.94
2023-10-26T20:28:03.002Z,9.91
2023-10-26T20:30:31.214Z,9.87
2023-10-26T20:32:58.634Z,9.82
2023-10-26T20:35:26.047Z,9.79
2023-10-26T20:37:53.376Z,9.79
2023-10-26T20:40:20.777Z,9.78
2023-10-26T20:42:51.217Z,9.77
2023-10-26T20:45:19.132Z,9.76
2023-10-26T20:47:46.490Z,9.74
2023-10-26T20:50:14.001Z,9.74
2023-10-26T20:52:41.501Z,9.73
2023-10-26T20:55:09.563Z,9.71
2023-10-26T20:57:36.891Z,9.68
2023-10-26T21:00:05.179Z,9.65
2023-10-26T21:02:32.606Z,9.61
2023-10-26T21:05:00.390Z,9.58
2023-10-26T21:07:28.072Z,9.55
2023-10-26T21:09:57.445Z,9.52
2023-10-26T21:12:24.911Z,9.48
2023-10-26T21:14:55.189Z,9.45
2023-10-26T21:17:22.951Z,9.44
2023-10-26T21:19:50.331Z,9.43
2023-10-26T21:22:17.714Z,9.41
2023-10-26T21:24:48.898Z,9.38
2023-10-26T21:27:16.399Z,9.34
2023-10-26T21:29:45.382Z,9.27
2023-10-26T21:32:12.996Z,9.20
2023-10-26T21:34:40.466Z,9.15
2023-10-26T21:37:08.321Z,9.11
2023-10-26T21:39:35.859Z,9.08
2023-10-26T21:42:03.305Z,9.05
2023-10-26T21:44:30.725Z,9.02
2023-10-26T21:46:58.218Z,8.99
2023-10-26T21:49:25.614Z,8.96
2023-10-26T21:51:53.424Z,8.94
2023-10-26T21:54:20.788Z,8.92
2023-10-26T21:56:48.319Z,8.89
2023-10-26T21:59:15.673Z,8.87
2023-10-26T22:01:43.575Z,8.83
2023-10-26T22:06:41.552Z,8.77
2023-10-26T22:09:08.967Z,8.75
2023-10-26T22:11:36.428Z,8.74
2023-10-26T22:14:04.180Z,8.74
2023-10-26T22:16:31.594Z,8.75
2023-10-26T22:18:59.231Z,8.76
2023-10-26T22:21:26.754Z,8.77
2023-10-26T22:23:55.044Z,8.79
2023-10-26T22:26:22.509Z,8.80
2023-10-26T22:28:49.909Z,8.81
2023-10-26T22:31:17.873Z,8.81
2023-10-26T22:33:47.704Z,8.80
2023-10-26T22:36:15.177Z,8.82
2023-10-26T22:38:42.497Z,8.84
2023-10-26T22:41:11.674Z,8.86
2023-10-26T22:43:39.103Z,8.87
2023-10-26T22:46:06.960Z,8.88
2023-10-26T22:48:34.486Z,8.88
2023-10-26T22:51:02.037Z,8.86
2023-10-26T22:53:29.396Z,8.84
2023-10-26T22:55:56.723Z,8.81
2023-10-26T22:58:24.658Z,8.80
2023-10-26T23:00:54.200Z,8.79
2023-10-26T23:03:21.616Z,8.79
2023-10-26T23:05:48.940Z,8.79
2023-10-26T23:08:16.267Z,8.82
2023-10-26T23:10:43.597Z,8.84
2023-10-26T23:13:10.974Z,8.84
2023-10-26T23:15:38.362Z,8.86
2023-10-26T23:18:05.788Z,8.89
2023-10-26T23:20:33.203Z,8.92
2023-10-26T23:23:00.562Z,8.95
2023-10-26T23:25:28.037Z,9.00
2023-10-26T23:27:55.741Z,9.06
2023-10-26T23:30:23.302Z,9.11
2023-10-26T23:32:51.950Z,9.15
2023-10-26T23:35:19.466Z,9.18
2023-10-26T23:37:46.775Z,9.21
2023-10-26T23:40:14.100Z,9.24
2023-10-26T23:42:43.520Z,9.28
2023-10-26T23:45:10.873Z,9.32
2023-10-26T23:47:38.321Z,9.36
2023-10-26T23:50:06.614Z,9.40
2023-10-26T23:52:36.902Z,9.43
2023-10-26T23:55:04.870Z,9.46
2023-10-26T23:57:32.278Z,9.49
2023-10-26T23:59:59.766Z,9.52
